sensor_id;sensor_type;location;lat;lon;timestamp;P1;durP1;ratioP1;P2;durP2;ratioP2
57893;SDS011;43710;47.460;19.034;2023-03-17T05:02:01;12.27;;;7.62;;
57893;SDS011;43710;47.460;19.034;2023-03-17T05:05:04;16.67;;;7.60;;
57893;SDS011;43710;47.460;19.034;2023-03-17T05:08:07;11.25;;;7.07;;
57893;SDS011;43710;47.460;19.034;2023-03-17T05:11:10;13.73;;;6.85;;
57893;SDS011;43710;47.460;19.034;2023-03-17T05:14:13;12.35;;;6.70;;
57893;SDS011;43710;47.460;19.034;2023-03-17T05:17:16;12.63;;;6.95;;
57893;SDS011;43710;47.460;19.034;2023-03-17T05:20:18;13.05;;;7.50;;
57893;SDS011;43710;47.460;19.034;2023-03-17T05:23:21;11.70;;;6.22;;
57893;SDS011;43710;47.460;19.034;2023-03-17T05:26:24;15.65;;;6.85;;
57893;SDS011;43710;47.460;19.034;2023-03-17T05:29:27;13.15;;;7.62;;
57893;SDS011;43710;47.460;19.034;2023-03-17T05:32:29;14.30;;;7.45;;
57893;SDS011;43710;47.460;19.034;2023-03-17T05:35:33;12.90;;;7.53;;
57893;SDS011;43710;47.460;19.034;2023-03-17T05:38:35;15.63;;;7.53;;
57893;SDS011;43710;47.460;19.034;2023-03-17T05:41:37;16.85;;;9.65;;
57893;SDS011;43710;47.460;19.034;2023-03-17T05:44:40;13.48;;;8.82;;
57893;SDS011;43710;47.460;19.034;2023-03-17T05:47:42;13.52;;;9.15;;
57893;SDS011;43710;47.460;19.034;2023-03-17T05:50:45;13.18;;;8.43;;
57893;SDS011;43710;47.460;19.034;2023-03-17T05:53:47;16.52;;;8.57;;
57893;SDS011;43710;47.460;19.034;2023-03-17T05:56:50;16.05;;;8.73;;
57893;SDS011;43710;47.460;19.034;2023-03-17T05:59:52;17.20;;;9.27;;
57893;SDS011;43710;47.460;19.034;2023-03-17T06:02:55;16.17;;;8.18;;
57893;SDS011;43710;47.460;19.034;2023-03-17T06:05:57;17.75;;;9.43;;
57893;SDS011;43710;47.460;19.034;2023-03-17T06:09:00;15.90;;;8.60;;
57893;SDS011;43710;47.460;19.034;2023-03-17T06:12:03;13.85;;;8.32;;
57893;SDS011;43710;47.460;19.034;2023-03-17T06:15:07;14.32;;;8.68;;
57893;SDS011;43710;47.460;19.034;2023-03-17T06:18:11;16.50;;;8.88;;
57893;SDS011;43710;47.460;19.034;2023-03-17T06:21:13;14.45;;;8.23;;
57893;SDS011;43710;47.460;19.034;2023-03-17T06:24:15;17.70;;;9.07;;
57893;SDS011;43710;47.460;19.034;2023-03-17T06:27:18;15.80;;;8.50;;
57893;SDS011;43710;47.460;19.034;2023-03-17T06:30:21;16.58;;;9.30;;
57893;SDS011;43710;47.460;19.034;2023-03-17T06:33:23;17.23;;;9.23;;
57893;SDS011;43710;47.460;19.034;2023-03-17T06:36:27;15.75;;;8.82;;
57893;SDS011;43710;47.460;19.034;2023-03-17T06:39:29;18.77;;;9.43;;
57893;SDS011;43710;47.460;19.034;2023-03-17T06:42:32;22.95;;;10.55;;
57893;SDS011;43710;47.460;19.034;2023-03-17T06:45:34;17.60;;;8.90;;
57893;SDS011;43710;47.460;19.034;2023-03-17T06:48:37;18.58;;;10.23;;
57893;SDS011;43710;47.460;19.034;2023-03-17T06:51:39;20.12;;;10.48;;
57893;SDS011;43710;47.460;19.034;2023-03-17T06:54:42;14.30;;;9.40;;
57893;SDS011;43710;47.460;19.034;2023-03-17T06:57:45;19.23;;;10.88;;
57893;SDS011;43710;47.460;19.034;2023-03-17T07:00:50;16.00;;;10.77;;
57893;SDS011;43710;47.460;19.034;2023-03-17T07:03:54;21.37;;;10.77;;
57893;SDS011;43710;47.460;19.034;2023-03-17T07:06:57;16.90;;;10.63;;
57893;SDS011;43710;47.460;19.034;2023-03-17T07:09:59;21.52;;;9.20;;
57893;SDS011;43710;47.460;19.034;2023-03-17T07:13:02;16.50;;;8.50;;
57893;SDS011;43710;47.460;19.034;2023-03-17T07:16:06;17.30;;;8.40;;
57893;SDS011;43710;47.460;19.034;2023-03-17T07:19:09;14.40;;;8.40;;
57893;SDS011;43710;47.460;19.034;2023-03-17T07:22:12;12.73;;;8.13;;
57893;SDS011;43710;47.460;19.034;2023-03-17T07:25:14;21.75;;;8.63;;
57893;SDS011;43710;47.460;19.034;2023-03-17T07:28:16;16.75;;;8.40;;
57893;SDS011;43710;47.460;19.034;2023-03-17T07:31:20;19.00;;;9.88;;
57893;SDS011;43710;47.460;19.034;2023-03-17T07:34:24;18.48;;;10.27;;
57893;SDS011;43710;47.460;19.034;2023-03-17T07:37:26;16.60;;;9.57;;
57893;SDS011;43710;47.460;19.034;2023-03-17T07:40:28;15.65;;;9.95;;
57893;SDS011;43710;47.460;19.034;2023-03-17T07:43:32;18.15;;;10.27;;
57893;SDS011;43710;47.460;19.034;2023-03-17T07:46:34;17.70;;;10.00;;
57893;SDS011;43710;47.460;19.034;2023-03-17T07:49:36;16.67;;;9.98;;
57893;SDS011;43710;47.460;19.034;2023-03-17T07:52:43;19.80;;;10.82;;
57893;SDS011;43710;47.460;19.034;2023-03-17T07:55:45;20.60;;;9.45;;
57893;SDS011;43710;47.460;19.034;2023-03-17T07:58:47;16.48;;;9.98;;
57893;SDS011;43710;47.460;19.034;2023-03-17T08:01:50;15.10;;;9.70;;
57893;SDS011;43710;47.460;19.034;2023-03-17T08:04:52;16.00;;;8.95;;
57893;SDS011;43710;47.460;19.034;2023-03-17T08:07:54;12.40;;;8.25;;
57893;SDS011;43710;47.460;19.034;2023-03-17T08:11:00;13.90;;;8.55;;
57893;SDS011;43710;47.460;19.034;2023-03-17T08:14:06;15.57;;;7.68;;
57893;SDS011;43710;47.460;19.034;2023-03-17T08:17:08;13.77;;;7.57;;
57893;SDS011;43710;47.460;19.034;2023-03-17T08:20:11;14.95;;;7.20;;
57893;SDS011;43710;47.460;19.034;2023-03-17T08:23:14;11.90;;;6.55;;
57893;SDS011;43710;47.460;19.034;2023-03-17T08:26:16;13.07;;;7.20;;
57893;SDS011;43710;47.460;19.034;2023-03-17T08:29:19;11.32;;;6.15;;
57893;SDS011;43710;47.460;19.034;2023-03-17T08:32:22;7.35;;;5.03;;
57893;SDS011;43710;47.460;19.034;2023-03-17T08:35:24;10.10;;;5.15;;
57893;SDS011;43710;47.460;19.034;2023-03-17T08:38:26;7.60;;;4.22;;
57893;SDS011;43710;47.460;19.034;2023-03-17T08:41:29;7.70;;;4.53;;
57893;SDS011;43710;47.460;19.034;2023-03-17T08:44:32;6.55;;;4.00;;
57893;SDS011;43710;47.460;19.034;2023-03-17T08:47:36;10.88;;;3.95;;
57893;SDS011;43710;47.460;19.034;2023-03-17T08:50:39;10.55;;;4.10;;
57893;SDS011;43710;47.460;19.034;2023-03-17T08:53:41;7.07;;;4.20;;
57893;SDS011;43710;47.460;19.034;2023-03-17T08:56:43;10.65;;;4.18;;
57893;SDS011;43710;47.460;19.034;2023-03-17T08:59:46;7.90;;;3.92;;
57893;SDS011;43710;47.460;19.034;2023-03-17T09:02:48;9.05;;;4.25;;
57893;SDS011;43710;47.460;19.034;2023-03-17T09:05:51;7.68;;;4.10;;
57893;SDS011;43710;47.460;19.034;2023-03-17T09:08:54;7.22;;;3.70;;
57893;SDS011;43710;47.460;19.034;2023-03-17T09:11:56;6.55;;;3.80;;
57893;SDS011;43710;47.460;19.034;2023-03-17T09:14:59;8.95;;;4.10;;
57893;SDS011;43710;47.460;19.034;2023-03-17T09:18:01;5.55;;;3.70;;
57893;SDS011;43710;47.460;19.034;2023-03-17T09:21:06;9.27;;;4.03;;
57893;SDS011;43710;47.460;19.034;2023-03-17T09:24:09;8.75;;;3.90;;
57893;SDS011;43710;47.460;19.034;2023-03-17T09:27:12;5.95;;;3.92;;
57893;SDS011;43710;47.460;19.034;2023-03-17T09:30:15;10.93;;;4.00;;
57893;SDS011;43710;47.460;19.034;2023-03-17T09:33:18;7.53;;;3.95;;
57893;SDS011;43710;47.460;19.034;2023-03-17T09:36:21;7.28;;;3.70;;
57893;SDS011;43710;47.460;19.034;2023-03-17T09:39:25;10.45;;;4.18;;
57893;SDS011;43710;47.460;19.034;2023-03-17T09:42:40;7.07;;;4.00;;
57893;SDS011;43710;47.460;19.034;2023-03-17T09:45:50;6.53;;;4.45;;
57893;SDS011;43710;47.460;19.034;2023-03-17T11:55:26;11.10;;;4.60;;
57893;SDS011;43710;47.460;19.034;2023-03-17T11:58:41;6.35;;;3.65;;
57893;SDS011;43710;47.460;19.034;2023-03-17T12:05:12;8.27;;;3.92;;
57893;SDS011;43710;47.460;19.034;2023-03-17T12:08:38;7.68;;;3.70;;
57893;SDS011;43710;47.460;19.034;2023-03-17T12:11:51;4.87;;;3.55;;
57893;SDS011;43710;47.460;19.034;2023-03-17T12:14:56;11.40;;;4.18;;
57893;SDS011;43710;47.460;19.034;2023-03-17T12:18:03;5.95;;;3.80;;
57893;SDS011;43710;47.460;19.034;2023-03-17T12:21:58;7.78;;;4.00;;
57893;SDS011;43710;47.460;19.034;2023-03-17T12:24:41;6.00;;;3.40;;
57893;SDS011;43710;47.460;19.034;2023-03-17T12:27:59;8.07;;;3.80;;
57893;SDS011;43710;47.460;19.034;2023-03-17T12:31:07;6.95;;;4.22;;
57893;SDS011;43710;47.460;19.034;2023-03-17T12:37:44;7.40;;;3.62;;
57893;SDS011;43710;47.460;19.034;2023-03-17T12:44:25;7.93;;;4.05;;
57893;SDS011;43710;47.460;19.034;2023-03-17T12:54:19;7.50;;;4.22;;
57893;SDS011;43710;47.460;19.034;2023-03-17T12:57:29;8.85;;;4.03;;
57893;SDS011;43710;47.460;19.034;2023-03-17T13:00:54;7.57;;;3.70;;
57893;SDS011;43710;47.460;19.034;2023-03-17T13:14:44;7.60;;;3.58;;
57893;SDS011;43710;47.460;19.034;2023-03-17T13:17:48;6.32;;;3.80;;
57893;SDS011;43710;47.460;19.034;2023-03-17T13:21:05;6.93;;;4.22;;
57893;SDS011;43710;47.460;19.034;2023-03-17T13:33:55;7.43;;;3.67;;
57893;SDS011;43710;47.460;19.034;2023-03-17T13:37:12;7.72;;;4.20;;
57893;SDS011;43710;47.460;19.034;2023-03-17T13:47:13;9.43;;;4.32;;
57893;SDS011;43710;47.460;19.034;2023-03-17T13:50:29;8.93;;;4.18;;
57893;SDS011;43710;47.460;19.034;2023-03-17T13:53:40;8.63;;;4.12;;
57893;SDS011;43710;47.460;19.034;2023-03-17T13:56:49;7.03;;;3.65;;
57893;SDS011;43710;47.460;19.034;2023-03-17T14:00:35;11.38;;;4.80;;
57893;SDS011;43710;47.460;19.034;2023-03-17T14:03:30;8.23;;;4.50;;
57893;SDS011;43710;47.460;19.034;2023-03-17T14:06:35;6.60;;;4.10;;
57893;SDS011;43710;47.460;19.034;2023-03-17T14:09:39;9.93;;;5.07;;
57893;SDS011;43710;47.460;19.034;2023-03-17T14:12:44;7.35;;;4.25;;
57893;SDS011;43710;47.460;19.034;2023-03-17T14:19:22;7.47;;;4.47;;
57893;SDS011;43710;47.460;19.034;2023-03-17T14:22:29;7.37;;;4.43;;
57893;SDS011;43710;47.460;19.034;2023-03-17T14:28:38;7.32;;;4.43;;
57893;SDS011;43710;47.460;19.034;2023-03-17T14:31:43;7.40;;;4.32;;
57893;SDS011;43710;47.460;19.034;2023-03-17T14:34:57;8.40;;;4.62;;
57893;SDS011;43710;47.460;19.034;2023-03-17T14:38:00;9.00;;;5.68;;
57893;SDS011;43710;47.460;19.034;2023-03-17T14:41:14;7.07;;;4.18;;
57893;SDS011;43710;47.460;19.034;2023-03-17T14:44:21;7.30;;;4.32;;
57893;SDS011;43710;47.460;19.034;2023-03-17T14:47:23;6.55;;;3.97;;
57893;SDS011;43710;47.460;19.034;2023-03-17T14:50:30;7.72;;;4.62;;
57893;SDS011;43710;47.460;19.034;2023-03-17T14:53:34;10.40;;;4.35;;
57893;SDS011;43710;47.460;19.034;2023-03-17T14:56:40;8.52;;;4.40;;
57893;SDS011;43710;47.460;19.034;2023-03-17T15:00:00;10.32;;;4.78;;
57893;SDS011;43710;47.460;19.034;2023-03-17T15:03:17;8.82;;;4.35;;
57893;SDS011;43710;47.460;19.034;2023-03-17T15:09:29;11.63;;;5.07;;
57893;SDS011;43710;47.460;19.034;2023-03-17T15:12:37;7.22;;;4.03;;
57893;SDS011;43710;47.460;19.034;2023-03-17T15:15:39;8.18;;;4.65;;
57893;SDS011;43710;47.460;19.034;2023-03-17T15:18:44;8.48;;;4.50;;
57893;SDS011;43710;47.460;19.034;2023-03-17T15:21:47;12.43;;;4.40;;
57893;SDS011;43710;47.460;19.034;2023-03-17T15:25:37;11.25;;;5.07;;
57893;SDS011;43710;47.460;19.034;2023-03-17T15:28:16;9.52;;;4.87;;
57893;SDS011;43710;47.460;19.034;2023-03-17T15:31:20;13.13;;;5.32;;
57893;SDS011;43710;47.460;19.034;2023-03-17T15:34:28;11.00;;;4.62;;
57893;SDS011;43710;47.460;19.034;2023-03-17T15:37:32;9.35;;;4.90;;
57893;SDS011;43710;47.460;19.034;2023-03-17T15:40:35;11.02;;;5.15;;
57893;SDS011;43710;47.460;19.034;2023-03-17T15:43:37;6.53;;;4.20;;
57893;SDS011;43710;47.460;19.034;2023-03-17T15:46:39;7.53;;;4.62;;
57893;SDS011;43710;47.460;19.034;2023-03-17T15:49:43;10.48;;;4.97;;
57893;SDS011;43710;47.460;19.034;2023-03-17T15:52:46;9.70;;;4.97;;
57893;SDS011;43710;47.460;19.034;2023-03-17T15:55:49;9.90;;;5.00;;
57893;SDS011;43710;47.460;19.034;2023-03-17T15:58:52;8.65;;;4.90;;
57893;SDS011;43710;47.460;19.034;2023-03-17T16:01:54;10.27;;;5.20;;
57893;SDS011;43710;47.460;19.034;2023-03-17T16:05:00;9.38;;;4.93;;
57893;SDS011;43710;47.460;19.034;2023-03-17T16:08:15;13.02;;;4.82;;
57893;SDS011;43710;47.460;19.034;2023-03-17T16:11:20;10.13;;;4.60;;
57893;SDS011;43710;47.460;19.034;2023-03-17T16:14:29;9.75;;;5.00;;
57893;SDS011;43710;47.460;19.034;2023-03-17T16:17:31;8.52;;;4.70;;
57893;SDS011;43710;47.460;19.034;2023-03-17T16:20:37;10.10;;;5.18;;
57893;SDS011;43710;47.460;19.034;2023-03-17T16:23:42;10.38;;;4.93;;
57893;SDS011;43710;47.460;19.034;2023-03-17T16:26:44;13.60;;;4.93;;
